Авиация Катастрофа Боинга-737 у Бейрута 25 января 2010 года - Катастрофа

23 января 2011


Оглавление:
1. Катастрофа Боинга-737 у Бейрута 25 января 2010 года
2. Катастрофа
3. Поисковая операция
4. Расследование



25 января 2010 года самолёт Boeing 737-8BK авиакомпании Ethiopian Airlines упал в Средиземное море спустя несколько минут после взлёта из Международного аэропорта Бейрута имени Рафика Харири. На борту находилось 8 членов экипажа и 82 пассажира, 54 из которых являлись гражданами Ливана. Самолёт следовал регулярным рейсом 409 из Бейрута в столицу Эфиопии Адис-Абебу.

Лайнер выполнял взлёт в условиях штормовой погоды, о чём свидетельствует метеорологический код для передачи сводок о фактической погоде: OLBA 250000Z 31008KT 280V340 8000 VCTS FEW020CB SCT026 13/06 Q1014 NOSIG =. Boeing-737 произвёл взлёт в 03 часа 10 минут местного времени в условиях грозовой активности в районе аэропорта и ветре переменных направлений со скоростью 8 узлов, набрал высоту в 9 тысяч футов и исчез с экранов радара между четвёртой и пятой минутой полёта. Свидетели инцидента, находившиеся в тот момент на побережье вблизи места катастрофы, утверждают, что самолёт загорелся в воздухе и затем рухнул в море.



Просмотров: 2734


<<< Авиакатастрофа MD-500 под Минском
Список потерь военной авиации Индии в 2010 году >>>